Time;durP1;ratioP1;P1;durP2;ratioP2;P2;SDS_P1;SDS_P2;PMS_P1;PMS_P2;Temp;Humidity;BMP_temperature;BMP_pressure;BME280_temperature;BME280_humidity;BME280_pressure;Samples;Min_cycle;Max_cycle;Signal;HPM_P1;HPM_P2
2022/04/26 03:37:05;;;;;;;;;31.00;25.00;;;;;11.09;100.00;101310.44;5094334;27;45476;-69
2022/04/26 03:39:34;;;;;;;;;28.75;25.50;;;;;11.04;100.00;101304.19;5098622;27;45377;-69
2022/04/26 03:42:02;;;;;;;;;33.75;32.25;;;;;11.00;100.00;101303.25;5098464;27;45492;-70
2022/04/26 03:44:28;;;;;;;;;35.00;27.50;;;;;11.00;100.00;101313.81;5098267;27;45282;-69
2022/04/26 03:46:54;;;;;;;;;32.00;29.50;;;;;10.99;100.00;101314.69;5097652;27;45445;-69
2022/04/26 03:49:23;;;;;;;;;33.75;27.75;;;;;10.97;100.00;101316.41;5097993;27;45487;-69
2022/04/26 03:51:48;;;;;;;;;41.00;32.00;;;;;10.96;100.00;101321.66;5098335;27;45394;-70
2022/04/26 03:54:16;;;;;;;;;36.00;28.25;;;;;10.95;100.00;101325.16;5097326;27;46349;-69
2022/04/26 03:56:42;;;;;;;;;37.50;29.25;;;;;10.93;100.00;101317.22;5096773;27;45384;-69
2022/04/26 03:59:07;;;;;;;;;33.00;31.75;;;;;10.89;100.00;101312.75;5097823;27;46075;-68
2022/04/26 04:01:32;;;;;;;;;30.75;29.25;;;;;10.88;100.00;101315.38;5097677;27;45457;-68
2022/04/26 04:03:58;;;;;;;;;33.75;27.50;;;;;10.88;100.00;101331.22;5097360;27;46218;-69
2022/04/26 04:06:23;;;;;;;;;33.25;31.50;;;;;10.84;100.00;101335.53;5117889;27;45356;-69
2022/04/26 04:08:49;;;;;;;;;35.00;27.75;;;;;10.81;100.00;101330.19;5118516;27;45433;-69
2022/04/26 04:11:14;;;;;;;;;37.50;28.50;;;;;10.77;100.00;101328.38;5118465;27;45264;-69
2022/04/26 04:13:39;;;;;;;;;33.75;31.25;;;;;10.76;100.00;101331.88;5100143;27;46568;-68
2022/04/26 04:16:05;;;;;;;;;34.50;28.00;;;;;10.77;100.00;101340.69;5117476;27;45584;-69
2022/04/26 04:21:17;;;;;;;;;40.75;35.00;;;;;10.75;100.00;101345.94;5118261;27;45545;-69
2022/04/26 04:23:43;;;;;;;;;35.00;31.25;;;;;10.72;100.00;101343.25;5118395;27;52653;-69
2022/04/26 04:26:08;;;;;;;;;34.25;32.50;;;;;10.73;100.00;101345.03;5117900;27;45394;-69
2022/04/26 04:28:34;;;;;;;;;33.25;29.25;;;;;10.80;100.00;101353.94;5118228;27;45164;-68
2022/04/26 04:31:03;;;;;;;;;33.75;30.00;;;;;10.83;100.00;101348.72;5117878;27;45187;-70
2022/04/26 04:33:28;;;;;;;;;34.50;30.25;;;;;10.83;100.00;101351.38;5123942;27;45824;-69
2022/04/26 04:35:54;;;;;;;;;36.50;30.25;;;;;10.81;100.00;101350.44;5117927;27;45484;-70
2022/04/26 04:38:19;;;;;;;;;32.25;25.50;;;;;10.81;100.00;101351.31;5118097;27;45302;-70
2022/04/26 04:40:45;;;;;;;;;37.50;33.00;;;;;10.79;100.00;101354.81;5117849;27;45527;-71
2022/04/26 04:43:11;;;;;;;;;38.50;30.25;;;;;10.77;100.00;101361.84;5117862;27;45494;-71
2022/04/26 04:45:37;;;;;;;;;36.50;33.00;;;;;10.73;100.00;101358.22;5117382;27;45433;-68
2022/04/26 04:48:05;;;;;;;;;36.75;33.50;;;;;10.72;100.00;101377.59;5117696;27;45421;-68
2022/04/26 04:50:36;;;;;;;;;34.25;31.25;;;;;10.69;100.00;101372.22;5118157;27;45586;-72
2022/04/26 04:53:02;;;;;;;;;45.75;32.50;;;;;10.69;100.00;101374.88;5118212;27;46298;-71
2022/04/26 04:55:27;;;;;;;;;38.25;31.50;;;;;10.67;100.00;101373.97;5118294;27;48028;-70
2022/04/26 04:57:53;;;;;;;;;41.75;35.25;;;;;10.68;100.00;101378.38;5117155;27;45433;-69
2022/04/26 05:00:19;;;;;;;;;41.50;34.00;;;;;10.74;100.00;101378.50;5117938;27;45564;-71
2022/04/26 05:02:44;;;;;;;;;44.75;35.75;;;;;10.83;100.00;101393.63;5116878;27;45329;-71
2022/04/26 05:05:10;;;;;;;;;43.75;35.25;;;;;10.90;100.00;101388.50;5211985;22;45477;-69
2022/04/26 05:07:39;;;;;;;;;45.75;33.25;;;;;10.96;100.00;101383.31;5054021;28;45344;-68
2022/04/26 05:10:07;;;;;;;;;41.75;35.00;;;;;10.93;100.00;101401.75;5070903;27;45494;-68
2022/04/26 05:12:33;;;;;;;;;35.00;31.50;;;;;10.92;100.00;101396.44;5053691;28;47172;-68
2022/04/26 05:14:59;;;;;;;;;43.50;35.25;;;;;10.93;100.00;101401.75;5076664;28;45320;-68
2022/04/26 05:17:28;;;;;;;;;34.75;34.50;;;;;10.99;100.00;101401.00;5076119;28;45707;-70
2022/04/26 05:19:53;;;;;;;;;40.75;34.50;;;;;11.08;100.00;101413.47;5074490;28;45431;-68
2022/04/26 05:22:19;;;;;;;;;36.25;34.00;;;;;11.14;100.00;101409.19;5046031;28;46592;-68
2022/04/26 05:24:53;;;;;;;;;43.25;35.00;;;;;11.20;100.00;101405.78;5071420;28;45398;-68
2022/04/26 05:27:23;;;;;;;;;45.75;37.00;;;;;11.28;100.00;101407.66;5065758;28;45393;-69
2022/04/26 05:29:48;;;;;;;;;49.75;36.50;;;;;11.35;100.00;101411.31;5076528;28;45441;-69
2022/04/26 05:32:19;;;;;;;;;43.25;36.00;;;;;11.43;100.00;101422.91;5052994;28;45754;-68
2022/04/26 05:34:45;;;;;;;;;44.50;37.00;;;;;11.49;100.00;101420.34;5054450;28;47175;-69
2022/04/26 05:37:10;;;;;;;;;51.50;37.00;;;;;11.54;100.00;101417.78;5063339;28;45584;-68
2022/04/26 05:39:35;;;;;;;;;39.50;36.25;;;;;11.62;100.00;101429.41;5074277;28;45359;-69
2022/04/26 05:42:01;;;;;;;;;43.50;37.25;;;;;11.68;100.00;101431.25;5075782;27;45649;-69
2022/04/26 05:44:26;;;;;;;;;50.50;38.75;;;;;11.71;100.00;101421.59;5075857;28;45429;-70
2022/04/26 05:46:52;;;;;;;;;42.25;36.75;;;;;11.75;100.00;101427.84;5074317;28;45272;-69
2022/04/26 05:49:17;;;;;;;;;47.75;37.75;;;;;11.80;100.00;101431.44;5075355;28;45608;-68
2022/04/26 05:51:42;;;;;;;;;46.75;36.50;;;;;11.83;100.00;101423.59;5071351;28;52293;-69
2022/04/26 05:54:08;;;;;;;;;46.75;39.50;;;;;11.84;100.00;101435.06;5064466;28;47986;-69
2022/04/26 05:56:33;;;;;;;;;40.00;36.50;;;;;11.81;100.00;101425.28;5067022;28;45445;-70
2022/04/26 05:58:58;;;;;;;;;46.75;38.75;;;;;11.80;100.00;101434.09;5067107;27;45568;-69
2022/04/26 06:01:24;;;;;;;;;46.50;37.50;;;;;11.77;100.00;101439.31;5067383;27;55589;-70
2022/04/26 06:03:49;;;;;;;;;47.25;39.50;;;;;11.77;100.00;101431.38;5072102;27;50020;-69
2022/04/26 06:06:15;;;;;;;;;54.50;42.50;;;;;11.76;100.00;101427.84;5070823;28;45459;-71
2022/04/26 06:08:41;;;;;;;;;41.25;33.50;;;;;11.75;100.00;101438.41;5073167;27;45504;-69
2022/04/26 06:11:07;;;;;;;;;55.50;41.75;;;;;11.72;100.00;101428.69;5073605;28;47394;-70
2022/04/26 06:13:32;;;;;;;;;57.00;41.00;;;;;11.74;100.00;101439.28;5071672;28;45283;-70
2022/04/26 06:15:57;;;;;;;;;59.25;46.00;;;;;11.74;100.00;101437.53;5067218;28;47848;-69
2022/04/26 06:18:23;;;;;;;;;56.75;41.75;;;;;11.76;100.00;101440.19;5071111;27;45443;-69
2022/04/26 06:20:48;;;;;;;;;58.25;45.50;;;;;11.77;100.00;101428.75;5056534;28;48562;-70
2022/04/26 06:23:13;;;;;;;;;63.50;47.75;;;;;11.80;100.00;101431.44;5069696;28;45438;-70
2022/04/26 06:25:39;;;;;;;;;58.25;44.25;;;;;11.85;100.00;101437.72;5070570;28;45404;-69
2022/04/26 06:28:06;;;;;;;;;56.00;45.25;;;;;11.90;100.00;101436.03;5079584;28;45400;-70
2022/04/26 06:30:31;;;;;;;;;63.75;47.00;;;;;11.94;100.00;101440.53;5077029;28;45870;-69
2022/04/26 06:32:57;;;;;;;;;71.50;50.75;;;;;12.03;100.00;101445.94;5075474;28;45312;-69
2022/04/26 06:35:22;;;;;;;;;57.75;45.75;;;;;12.13;100.00;101456.66;5055468;28;45362;-69
2022/04/26 06:37:48;;;;;;;;;60.50;47.00;;;;;12.26;100.00;101459.53;5077141;28;45629;-69
2022/04/26 06:40:14;;;;;;;;;62.25;47.75;;;;;12.44;100.00;101458.00;5081954;27;46226;-70
2022/04/26 06:42:39;;;;;;;;;59.25;46.00;;;;;12.57;100.00;101463.47;5081719;27;45516;-69
2022/04/26 06:45:05;;;;;;;;;61.75;47.50;;;;;12.73;100.00;101463.66;5068361;28;46629;-69
2022/04/26 06:47:30;;;;;;;;;64.50;48.00;;;;;12.84;100.00;101464.69;5069420;28;46734;-70
2022/04/26 06:49:55;;;;;;;;;62.25;49.00;;;;;12.93;100.00;101462.13;5078287;27;51518;-69
2022/04/26 06:52:21;;;;;;;;;57.00;46.50;;;;;13.03;100.00;101463.13;5067675;27;48583;-70
2022/04/26 06:54:46;;;;;;;;;66.75;51.00;;;;;13.13;100.00;101464.13;5072469;27;45430;-70
2022/04/26 06:57:11;;;;;;;;;65.00;50.75;;;;;13.21;100.00;101462.44;5069906;27;45506;-69
2022/04/26 06:59:39;;;;;;;;;66.75;50.75;;;;;13.25;100.00;101470.47;5074434;27;51990;-70
2022/04/26 07:02:05;;;;;;;;;63.25;48.00;;;;;13.29;100.00;101464.31;5070288;27;45606;-72
2022/04/26 07:04:31;;;;;;;;;67.75;49.25;;;;;13.30;100.00;101462.56;5073838;27;45619;-70
2022/04/26 07:06:56;;;;;;;;;63.50;50.00;;;;;13.30;100.00;101468.75;5078144;27;46102;-70
2022/04/26 07:09:22;;;;;;;;;64.50;49.50;;;;;13.34;100.00;101467.91;5075214;27;45902;-70
2022/04/26 07:11:47;;;;;;;;;69.50;53.75;;;;;13.39;100.00;101475.91;5073347;27;45398;-71
2022/04/26 07:14:13;;;;;;;;;73.75;53.00;;;;;13.41;100.00;101478.56;5071739;27;45526;-69
2022/04/26 07:16:38;;;;;;;;;68.75;50.50;;;;;13.43;100.00;101469.78;5070828;27;45534;-70
2022/04/26 07:19:04;;;;;;;;;68.75;51.25;;;;;13.51;100.00;101472.50;5075563;27;45486;-69
2022/04/26 07:21:30;;;;;;;;;67.75;51.75;;;;;13.58;100.00;101472.56;5074356;27;45582;-70
2022/04/26 07:23:55;;;;;;;;;72.25;53.00;;;;;13.56;100.00;101468.13;5068193;27;45308;-70
2022/04/26 07:26:21;;;;;;;;;63.50;48.25;;;;;13.54;100.00;101481.38;5073776;27;46521;-70
2022/04/26 07:28:46;;;;;;;;;70.75;51.50;;;;;13.50;100.00;101468.94;5073948;27;52204;-70
2022/04/26 07:31:11;;;;;;;;;68.25;51.00;;;;;13.56;100.00;101478.72;5075012;27;45562;-72
2022/04/26 07:36:22;;;;;;;;;62.75;47.75;;;;;13.62;100.00;101482.31;5068420;27;45836;-75
2022/04/26 07:38:49;;;;;;;;;67.50;51.50;;;;;13.65;100.00;101484.13;5074337;27;46523;-75
2022/04/26 07:41:15;;;;;;;;;67.75;52.50;;;;;13.67;100.00;101478.81;5075686;27;45591;-72
2022/04/26 07:43:41;;;;;;;;;66.25;51.25;;;;;13.68;100.00;101489.44;5075599;27;45444;-71
2022/04/26 07:46:07;;;;;;;;;67.00;51.50;;;;;13.73;100.00;101494.78;5070710;27;46618;-72
2022/04/26 07:48:39;;;;;;;;;67.00;51.25;;;;;13.80;100.00;101494.88;5074925;27;46422;-72
2022/04/26 07:51:08;;;;;;;;;65.50;51.00;;;;;13.95;100.00;101509.13;5058710;27;45556;-72
2022/04/26 07:53:37;;;;;;;;;66.00;52.00;;;;;14.09;100.00;101512.78;5071199;27;45629;-74
2022/04/26 07:56:06;;;;;;;;;67.50;50.25;;;;;14.23;100.00;101499.63;5072049;27;45494;-71
2022/04/26 07:58:32;;;;;;;;;65.25;49.25;;;;;14.37;100.00;101511.22;5074979;27;46344;-71
2022/04/26 08:00:58;;;;;;;;;68.00;51.25;;;;;14.39;100.00;101514.78;5070995;27;45467;-70
2022/04/26 08:03:23;;;;;;;;;67.50;52.50;;;;;14.42;100.00;101517.44;5073217;27;45695;-71
2022/04/26 08:05:49;;;;;;;;;68.50;51.00;;;;;14.45;100.00;101520.13;5071524;27;45605;-69
2022/04/26 08:08:15;;;;;;;;;60.25;48.50;;;;;14.51;100.00;101528.16;5070162;27;46716;-69
2022/04/26 08:10:40;;;;;;;;;65.25;48.50;;;;;14.56;100.00;101534.41;5074132;27;45415;-71
2022/04/26 08:13:06;;;;;;;;;65.25;50.25;;;;;14.65;100.00;101533.56;5056709;28;45665;-71
2022/04/26 08:15:31;;;;;;;;;54.25;44.25;;;;;14.70;100.00;101537.16;5050843;28;45574;-71
2022/04/26 08:17:56;;;;;;;;;63.00;46.75;;;;;14.76;100.00;101529.19;5074724;27;46299;-70
2022/04/26 08:20:24;;;;;;;;;59.50;46.25;;;;;14.84;100.00;101542.53;5074320;27;45355;-69
2022/04/26 08:22:49;;;;;;;;;63.00;47.25;;;;;14.94;100.00;101536.38;5075638;27;45488;-72
2022/04/26 08:27:58;;;;;;;;;62.00;47.25;;;;;15.19;100.00;101537.34;5069137;27;45473;-69
2022/04/26 08:30:24;;;;;;;;;59.75;46.50;;;;;15.31;100.00;101545.38;5072387;27;45513;-74
2022/04/26 08:32:50;;;;;;;;;55.75;43.50;;;;;15.37;100.00;101544.50;5067456;27;45513;-72
2022/04/26 08:35:24;;;;;;;;;61.00;47.75;;;;;15.45;100.00;101551.63;5074899;27;46634;-71
2022/04/26 08:37:50;;;;;;;;;59.00;43.75;;;;;15.39;100.00;101548.94;5070580;27;45549;-71
2022/04/26 08:40:15;;;;;;;;;56.25;43.00;;;;;15.29;100.00;101552.47;5058972;27;45304;-71
2022/04/26 08:42:44;;;;;;;;;57.50;45.75;;;;;15.18;100.00;101559.53;5045864;27;45470;-72
2022/04/26 08:45:12;;;;;;;;;53.25;42.00;;;;;15.16;100.00;101556.84;5075469;27;45376;-72
2022/04/26 08:53:28;;;;;;;;;58.50;45.00;;;;;15.63;100.00;101563.22;5009371;28;45537;-72
2022/04/26 08:55:58;;;;;;;;;55.25;43.00;;;;;15.87;100.00;101562.34;5005777;28;45377;-73
2022/04/26 08:58:27;;;;;;;;;57.00;45.25;;;;;16.07;98.97;101560.59;5044605;27;47400;-70
2022/04/26 09:01:12;;;;;;;;;60.00;45.75;;;;;16.27;98.16;101565.03;5072933;27;45483;-70
2022/04/26 09:04:02;;;;;;;;;50.25;42.50;;;;;16.41;95.59;101558.81;5073639;27;45505;-71
2022/04/26 09:06:36;;;;;;;;;54.00;44.25;;;;;16.54;96.33;101562.34;5072278;27;45555;-70
2022/04/26 09:09:21;;;;;;;;;56.00;44.75;;;;;16.64;92.42;101574.75;5074878;27;45757;-71
2022/04/26 09:11:47;;;;;;;;;59.50;44.25;;;;;16.68;93.91;101571.19;5074197;27;45600;-71
2022/04/26 09:14:34;;;;;;;;;58.25;44.50;;;;;16.82;95.13;101575.63;5072721;27;45316;-71
2022/04/26 09:17:07;;;;;;;;;55.50;45.75;;;;;16.95;93.76;101574.72;5055839;27;45439;-70
2022/04/26 09:19:58;;;;;;;;;56.25;44.25;;;;;17.06;92.34;101591.56;5067443;27;46303;-71
2022/04/26 09:22:26;;;;;;;;;57.00;45.25;;;;;17.09;92.04;101588.00;5068044;28;46402;-73
2022/04/26 09:24:59;;;;;;;;;54.25;44.00;;;;;17.03;91.33;101588.91;5066607;27;45445;-72
2022/04/26 09:27:25;;;;;;;;;52.00;42.50;;;;;16.91;91.87;101594.28;5073297;27;45553;-72
2022/04/26 09:29:51;;;;;;;;;59.25;45.00;;;;;16.82;91.27;101600.53;5075801;27;47439;-71
2022/04/26 09:32:16;;;;;;;;;54.00;43.75;;;;;16.75;90.58;101597.00;5074512;27;45458;-72
2022/04/26 09:34:42;;;;;;;;;56.25;45.50;;;;;16.75;91.41;101597.00;5074083;27;45995;-73
2022/04/26 09:37:08;;;;;;;;;54.75;44.00;;;;;16.82;91.67;101599.63;5072663;27;45515;-72
2022/04/26 09:39:33;;;;;;;;;53.00;43.00;;;;;16.87;89.79;101603.19;5067621;27;46154;-71
2022/04/26 09:41:59;;;;;;;;;49.50;42.00;;;;;16.90;88.86;101605.84;5069662;27;45376;-71
2022/04/26 09:44:35;;;;;;;;;54.75;42.25;;;;;16.92;90.00;101607.59;5075050;27;45569;-71
2022/04/26 09:47:00;;;;;;;;;55.25;43.50;;;;;16.89;88.17;101610.31;5073337;27;45769;-73
2022/04/26 09:49:27;;;;;;;;;55.25;45.00;;;;;16.86;89.50;101604.06;5074240;27;45539;-70
2022/04/26 09:51:56;;;;;;;;;59.25;44.25;;;;;16.86;89.50;101607.63;5067791;27;45507;-74
2022/04/26 09:54:22;;;;;;;;;56.50;42.50;;;;;16.90;89.75;101614.75;5072628;27;45562;-72
2022/04/26 09:56:49;;;;;;;;;54.75;43.75;;;;;16.88;89.22;101607.63;5077880;27;45602;-73
2022/04/26 09:59:27;;;;;;;;;58.00;43.75;;;;;16.79;89.05;101610.34;5077997;27;46950;-73
2022/04/26 10:01:55;;;;;;;;;59.75;44.75;;;;;16.72;89.07;101614.75;5071220;27;45878;-71
2022/04/26 10:04:23;;;;;;;;;57.25;45.75;;;;;16.71;89.25;101623.66;5072328;27;45442;-70
2022/04/26 10:06:58;;;;;;;;;62.75;49.00;;;;;16.77;89.09;101628.97;5070989;27;45620;-72
2022/04/26 10:09:24;;;;;;;;;52.50;42.50;;;;;16.84;89.15;101621.88;5058821;28;46351;-70
2022/04/26 10:11:54;;;;;;;;;63.25;47.00;;;;;16.88;88.87;101623.63;5078143;27;45514;-72
2022/04/26 10:14:20;;;;;;;;;57.75;43.50;;;;;16.94;88.25;101619.19;5076421;27;45768;-70
2022/04/26 10:16:46;;;;;;;;;55.00;45.00;;;;;16.96;88.42;101617.38;5076716;27;45530;-72
2022/04/26 10:19:12;;;;;;;;;55.75;44.00;;;;;16.97;87.41;101624.50;5056602;28;45708;-71
2022/04/26 10:21:40;;;;;;;;;51.00;40.00;;;;;16.94;87.50;101624.53;5069324;27;45519;-71
2022/04/26 10:24:06;;;;;;;;;56.50;44.75;;;;;16.97;86.72;101623.59;5072912;27;45328;-69
2022/04/26 10:26:33;;;;;;;;;54.75;44.50;;;;;17.03;87.39;101623.59;5069096;27;46913;-71
2022/04/26 10:29:08;;;;;;;;;54.50;44.00;;;;;17.18;86.96;101633.34;5075140;27;47558;-70
2022/04/26 10:31:44;;;;;;;;;59.00;46.50;;;;;17.28;85.71;101624.41;5073712;27;45457;-72
2022/04/26 10:34:23;;;;;;;;;57.00;44.25;;;;;17.42;85.67;101635.91;5059358;27;45452;-70
2022/04/26 10:36:54;;;;;;;;;49.75;41.50;;;;;17.57;84.83;101624.25;5077781;27;45276;-68
2022/04/26 10:39:20;;;;;;;;;58.50;45.50;;;;;17.79;83.99;101630.44;5076222;27;45824;-70
2022/04/26 10:41:47;;;;;;;;;52.25;41.25;;;;;17.99;83.28;101633.84;5076347;27;45498;-69
2022/04/26 10:44:12;;;;;;;;;53.00;42.00;;;;;18.18;78.45;101628.38;5061149;28;45552;-72
2022/04/26 10:46:38;;;;;;;;;49.50;40.00;;;;;18.31;78.77;101630.03;5050250;27;45560;-70
2022/04/26 10:49:26;;;;;;;;;54.75;43.75;;;;;18.41;80.39;101630.84;5073569;27;46135;-71
2022/04/26 10:52:13;;;;;;;;;55.50;43.25;;;;;18.45;80.17;101629.94;5075905;27;45600;-71
2022/04/26 10:55:03;;;;;;;;;53.25;43.00;;;;;18.38;79.32;101629.09;5070786;27;45537;-69
2022/04/26 10:57:33;;;;;;;;;55.50;42.25;;;;;18.30;79.96;101630.94;5071676;27;45436;-69
2022/04/26 11:00:14;;;;;;;;;51.25;41.50;;;;;18.23;80.56;101630.09;5073522;27;47833;-70
2022/04/26 11:02:50;;;;;;;;;50.75;41.75;;;;;18.15;80.73;101637.28;5073999;27;45236;-72
2022/04/26 11:05:24;;;;;;;;;54.50;43.25;;;;;18.12;80.86;101634.66;5075304;27;45623;-70
2022/04/26 11:07:49;;;;;;;;;51.50;41.50;;;;;18.08;80.48;101627.53;5055031;28;45655;-69
2022/04/26 11:10:18;;;;;;;;;48.00;39.50;;;;;18.06;81.24;101627.56;5075302;27;46351;-72
2022/04/26 11:12:43;;;;;;;;;51.50;41.50;;;;;18.10;81.53;101624.84;5069200;27;45685;-69
2022/04/26 11:15:11;;;;;;;;;49.25;41.00;;;;;18.21;81.16;101637.22;5076515;28;46147;-69
2022/04/26 11:17:37;;;;;;;;;51.50;40.75;;;;;18.30;80.95;101629.16;5055121;28;45468;-69
2022/04/26 11:20:03;;;;;;;;;51.25;40.75;;;;;18.45;79.44;101624.59;5068198;28;45593;-70
2022/04/26 11:22:29;;;;;;;;;52.25;41.00;;;;;18.58;80.44;101628.91;5078047;27;45435;-69
2022/04/26 11:28:00;;;;;;;;;47.50;37.50;;;;;18.98;78.75;101623.19;5058486;28;45396;-71
2022/04/26 11:30:31;;;;;;;;;51.00;41.25;;;;;19.21;78.81;101626.47;5075154;28;45847;-71
2022/04/26 11:33:01;;;;;;;;;49.50;40.75;;;;;19.40;77.79;101610.22;5074466;28;45334;-70
2022/04/26 11:35:28;;;;;;;;;50.50;39.75;;;;;19.60;75.41;101617.09;5077995;28;45481;-70
2022/04/26 11:37:55;;;;;;;;;40.75;35.75;;;;;19.77;76.49;101622.22;5078329;28;45511;-69
2022/04/26 11:40:29;;;;;;;;;49.00;38.00;;;;;19.89;75.62;101627.41;5062168;28;46707;-70
2022/04/26 11:42:57;;;;;;;;;48.50;37.25;;;;;20.03;75.82;101627.19;5073793;28;45397;-71
2022/04/26 11:45:28;;;;;;;;;46.00;39.50;;;;;20.17;74.34;101626.97;5077850;28;45325;-71
2022/04/26 11:47:55;;;;;;;;;49.00;38.00;;;;;20.25;74.08;101622.38;5078205;28;45243;-70
2022/04/26 11:50:29;;;;;;;;;44.50;37.25;;;;;20.37;74.04;101621.28;5070452;28;46190;-70
2022/04/26 11:53:07;;;;;;;;;43.25;37.50;;;;;20.48;72.93;101627.38;5077706;28;45420;-72
2022/04/26 11:55:37;;;;;;;;;45.75;35.00;;;;;20.56;71.39;101621.88;5076872;28;45456;-71
2022/04/26 11:58:09;;;;;;;;;48.50;38.00;;;;;20.63;70.57;101623.53;5072310;27;45435;-70
2022/04/26 12:00:35;;;;;;;;;39.50;32.00;;;;;20.67;70.33;101612.72;5073228;28;46426;-70
2022/04/26 12:03:04;;;;;;;;;35.25;32.75;;;;;20.78;69.88;101622.38;5074592;28;45394;-70
2022/04/26 12:05:35;;;;;;;;;44.25;35.75;;;;;20.79;69.93;101616.97;5073818;28;45351;-70
2022/04/26 12:08:01;;;;;;;;;45.50;35.50;;;;;20.81;68.90;101607.09;5069418;28;45268;-70
2022/04/26 12:10:28;;;;;;;;;47.75;36.00;;;;;20.89;69.23;101618.59;5077627;27;45766;-70
2022/04/26 12:12:58;;;;;;;;;49.50;36.00;;;;;20.93;69.13;101614.94;5077218;28;45565;-69
2022/04/26 12:15:28;;;;;;;;;44.25;37.25;;;;;20.90;68.82;101617.66;5077044;28;45752;-72
2022/04/26 12:18:13;;;;;;;;;44.00;36.00;;;;;20.81;69.34;101616.94;5072627;28;45468;-69
2022/04/26 12:20:56;;;;;;;;;40.50;34.25;;;;;20.77;70.16;101620.59;5074514;28;48334;-71
2022/04/26 12:23:22;;;;;;;;;45.75;38.00;;;;;20.88;69.30;101621.31;5064891;27;45513;-70
2022/04/26 12:25:55;;;;;;;;;39.25;34.75;;;;;21.02;68.45;101624.59;5069644;27;45377;-70
2022/04/26 12:28:21;;;;;;;;;39.50;34.00;;;;;21.07;67.87;101628.06;5073506;27;45645;-70
2022/04/26 12:30:46;;;;;;;;;43.00;37.00;;;;;20.98;67.33;101627.34;5074583;27;45840;-70
2022/04/26 12:33:30;;;;;;;;;39.00;34.00;;;;;20.99;68.83;101618.41;5054051;28;49514;-72
2022/04/26 12:36:03;;;;;;;;;39.33;34.67;;;;;21.09;67.20;101622.66;5065630;28;45509;-70
2022/04/26 12:38:29;;;;;;;;;39.50;33.75;;;;;21.15;66.90;101622.56;5075110;27;45383;-73
2022/04/26 12:41:06;;;;;;;;;38.00;31.67;;;;;21.19;66.09;101618.88;5081303;27;45639;-72
2022/04/26 12:43:32;;;;;;;;;37.33;34.00;;;;;21.30;64.42;101618.69;5072725;27;45521;-72
2022/04/26 12:46:00;;;;;;;;;40.33;32.00;;;;;21.51;64.58;101615.53;5071005;27;45470;-72
2022/04/26 12:51:18;;;;;;;;;32.67;30.33;;;;;22.23;62.48;101609.41;5067468;27;45568;-73
2022/04/26 12:53:45;;;;;;;;;27.00;26.33;;;;;22.26;62.45;101597.66;5070617;27;45535;-71
2022/04/26 12:56:11;;;;;;;;;25.33;24.00;;;;;22.28;61.02;101606.59;5073302;27;45569;-71
2022/04/26 12:58:41;;;;;;;;;30.00;25.00;;;;;22.32;60.65;101602.94;5074540;27;45496;-72
2022/04/26 13:01:07;;;;;;;;;25.67;25.67;;;;;22.48;60.26;101604.28;5072457;27;46485;-74
2022/04/26 13:03:34;;;;;;;;;30.00;26.33;;;;;22.69;59.69;101596.56;5071881;27;45558;-73
2022/04/26 13:06:09;;;;;;;;;35.00;27.00;;;;;22.88;60.04;101595.16;5073475;27;45327;-73
2022/04/26 13:08:34;;;;;;;;;23.00;22.00;;;;;23.35;58.22;101594.72;5077636;27;45314;-73
2022/04/26 13:11:00;;;;;;;;;25.33;20.33;;;;;24.01;58.89;101591.75;5074441;27;45610;-72
2022/04/26 13:13:27;;;;;;;;;22.67;21.67;;;;;25.03;57.72;101583.72;5075519;27;45515;-73
2022/04/26 13:15:53;;;;;;;;;26.33;25.33;;;;;26.51;54.51;101575.13;5073788;27;45164;-72
2022/04/26 13:18:18;;;;;;;;;22.33;21.33;;;;;28.67;50.94;101578.38;5038920;27;45561;-73
2022/04/26 13:20:45;;;;;;;;;23.33;23.33;;;;;30.85;41.33;101575.00;5051567;28;46427;-71
2022/04/26 13:23:14;;;;;;;;;22.67;21.33;;;;;32.33;40.44;101573.50;5071699;27;45361;-74
2022/04/26 13:25:40;;;;;;;;;27.00;25.00;;;;;31.45;36.46;101577.56;5072780;27;45554;-74
2022/04/26 13:28:07;;;;;;;;;26.33;24.33;;;;;30.10;38.82;101576.78;5069338;27;45515;-71
2022/04/26 13:30:32;;;;;;;;;23.33;21.33;;;;;30.80;39.77;101571.69;5071429;27;47191;-72
2022/04/26 13:32:58;;;;;;;;;19.67;19.67;;;;;31.75;38.66;101578.28;5073106;27;45474;-72
2022/04/26 13:35:25;;;;;;;;;27.00;22.67;;;;;33.26;36.41;101569.69;5080668;27;45574;-74
2022/04/26 13:37:52;;;;;;;;;22.00;21.33;;;;;33.13;34.49;101560.59;5074231;27;45575;-73
2022/04/26 13:40:18;;;;;;;;;23.33;21.33;;;;;33.65;33.48;101567.75;5077725;27;46461;-73
2022/04/26 13:42:43;;;;;;;;;23.00;21.00;;;;;34.51;32.70;101561.25;5070225;27;45588;-73
2022/04/26 13:45:09;;;;;;;;;22.33;22.33;;;;;34.06;31.92;101567.41;5072734;27;45504;-74
2022/04/26 13:47:36;;;;;;;;;24.33;23.00;;;;;34.66;32.17;101563.66;5073214;27;45530;-73
2022/04/26 13:50:04;;;;;;;;;24.00;22.67;;;;;36.51;30.22;101555.72;5072661;27;46743;-71
2022/04/26 13:52:29;;;;;;;;;23.00;21.00;;;;;36.40;28.27;101548.38;5074002;27;45496;-73
2022/04/26 13:54:54;;;;;;;;;22.00;22.00;;;;;34.67;29.27;101557.16;5071886;27;45354;-75
2022/04/26 13:57:20;;;;;;;;;21.67;20.00;;;;;33.25;30.76;101551.50;5052654;28;45634;-72
2022/04/26 13:59:46;;;;;;;;;21.33;21.33;;;;;34.51;30.86;101548.41;5075762;27;46379;-74
2022/04/26 14:02:12;;;;;;;;;19.67;19.67;;;;;36.48;30.21;101547.72;5071137;27;45516;-74
2022/04/26 14:04:37;;;;;;;;;23.67;23.67;;;;;37.91;27.22;101544.91;5072485;27;45433;-74
2022/04/26 14:07:04;;;;;;;;;27.33;21.33;;;;;37.34;25.66;101542.84;5072216;27;45604;-75
2022/04/26 14:09:29;;;;;;;;;20.67;20.33;;;;;35.27;26.34;101551.53;5072982;27;45649;-74
2022/04/26 14:11:55;;;;;;;;;19.33;18.33;;;;;33.16;27.54;101548.56;5070620;27;45505;-74
2022/04/26 14:22:36;;;;;;;;;19.00;18.00;;;;;26.58;33.08;101559.47;5072483;27;45474;-73
2022/04/26 14:25:04;;;;;;;;;18.00;17.67;;;;;25.55;35.25;101557.44;5073355;27;45411;-73
2022/04/26 14:27:31;;;;;;;;;20.33;20.33;;;;;24.82;35.76;101561.06;5073498;27;45655;-74
2022/04/26 14:29:56;;;;;;;;;18.67;16.00;;;;;24.62;36.90;101559.13;5068993;27;46436;-73
2022/04/26 14:32:22;;;;;;;;;17.33;16.33;;;;;25.04;37.39;101558.50;5050514;28;45575;-72
2022/04/26 14:34:48;;;;;;;;;18.33;17.00;;;;;25.41;35.96;101559.78;5067613;27;45439;-73
2022/04/26 14:37:14;;;;;;;;;18.33;18.33;;;;;25.33;36.01;101552.88;5071327;27;45477;-73
2022/04/26 14:39:39;;;;;;;;;17.33;17.33;;;;;25.13;37.39;101559.97;5069090;27;45751;-73
2022/04/26 14:42:05;;;;;;;;;19.00;17.33;;;;;24.98;36.92;101554.19;5077217;27;46706;-72
2022/04/26 14:44:31;;;;;;;;;18.67;18.67;;;;;24.90;37.39;101560.81;5077188;27;45366;-71
2022/04/26 14:46:57;;;;;;;;;15.33;15.33;;;;;24.87;38.92;101560.91;5073618;27;45486;-71
2022/04/26 14:49:23;;;;;;;;;17.33;17.33;;;;;24.52;37.88;101563.09;5073730;27;47084;-72
2022/04/26 14:51:48;;;;;;;;;19.33;17.67;;;;;24.04;38.66;101559.28;5070520;27;45902;-72
2022/04/26 14:54:13;;;;;;;;;16.67;16.67;;;;;23.72;40.49;101564.84;5057962;28;46580;-71
2022/04/26 14:56:39;;;;;;;;;19.33;18.33;;;;;23.49;39.53;101569.13;5076791;27;45672;-73
2022/04/26 14:59:07;;;;;;;;;19.00;17.67;;;;;23.26;40.15;101566.22;5072623;27;46308;-71
2022/04/26 15:01:33;;;;;;;;;15.33;15.33;;;;;23.14;40.61;101572.00;5077000;27;45388;-72
2022/04/26 15:03:59;;;;;;;;;19.67;16.67;;;;;23.16;41.76;101556.66;5073680;27;45437;-71
2022/04/26 15:06:24;;;;;;;;;17.33;17.33;;;;;23.32;40.83;101563.34;5073692;27;45317;-71
2022/04/26 15:11:34;;;;;;;;;15.67;13.33;;;;;23.47;41.29;101557.50;5075108;27;45490;-71
2022/04/26 15:16:46;;;;;;;;;15.00;14.00;;;;;23.99;41.72;101546.88;5072175;27;45548;-72
2022/04/26 15:19:13;;;;;;;;;13.00;12.00;;;;;24.20;40.72;101542.56;5072913;27;47822;-73